sensor_id;sensor_type;location;lat;lon;timestamp;temperature;humidity
23156;DHT22;11746;50.876;4.246;2022-12-29T00:00:17;11.50;99.90
23156;DHT22;11746;50.876;4.246;2022-12-29T00:02:45;11.50;99.90
23156;DHT22;11746;50.876;4.246;2022-12-29T00:05:13;11.50;99.90
23156;DHT22;11746;50.876;4.246;2022-12-29T00:07:39;11.50;99.90
23156;DHT22;11746;50.876;4.246;2022-12-29T00:10:05;11.50;99.90
23156;DHT22;11746;50.876;4.246;2022-12-29T00:12:31;11.60;99.90
23156;DHT22;11746;50.876;4.246;2022-12-29T00:15:19;11.50;99.90
23156;DHT22;11746;50.876;4.246;2022-12-29T00:18:06;11.60;99.90
23156;DHT22;11746;50.876;4.246;2022-12-29T00:20:37;11.60;99.90
23156;DHT22;11746;50.876;4.246;2022-12-29T00:23:25;11.70;99.90
23156;DHT22;11746;50.876;4.246;2022-12-29T00:26:13;11.70;99.90
23156;DHT22;11746;50.876;4.246;2022-12-29T00:28:58;11.70;99.90
23156;DHT22;11746;50.876;4.246;2022-12-29T00:31:44;11.70;99.90
23156;DHT22;11746;50.876;4.246;2022-12-29T00:34:28;11.70;99.90
23156;DHT22;11746;50.876;4.246;2022-12-29T00:37:12;11.70;99.90
23156;DHT22;11746;50.876;4.246;2022-12-29T00:39:40;11.80;99.90
23156;DHT22;11746;50.876;4.246;2022-12-29T00:42:25;11.80;99.90
23156;DHT22;11746;50.876;4.246;2022-12-29T00:45:09;11.80;99.90
23156;DHT22;11746;50.876;4.246;2022-12-29T00:47:37;11.80;99.90
23156;DHT22;11746;50.876;4.246;2022-12-29T00:50:03;11.80;99.90
23156;DHT22;11746;50.876;4.246;2022-12-29T00:52:29;11.80;99.90
23156;DHT22;11746;50.876;4.246;2022-12-29T00:54:54;11.90;99.90
23156;DHT22;11746;50.876;4.246;2022-12-29T00:57:20;12.00;99.90
23156;DHT22;11746;50.876;4.246;2022-12-29T00:59:48;11.90;99.90
23156;DHT22;11746;50.876;4.246;2022-12-29T01:02:16;11.80;99.90
23156;DHT22;11746;50.876;4.246;2022-12-29T01:04:41;11.80;99.90
23156;DHT22;11746;50.876;4.246;2022-12-29T01:07:07;11.80;99.90
23156;DHT22;11746;50.876;4.246;2022-12-29T01:09:36;11.80;99.90
23156;DHT22;11746;50.876;4.246;2022-12-29T01:12:20;11.80;99.90
23156;DHT22;11746;50.876;4.246;2022-12-29T01:15:06;11.80;99.90
23156;DHT22;11746;50.876;4.246;2022-12-29T01:17:35;11.70;99.90
23156;DHT22;11746;50.876;4.246;2022-12-29T01:20:04;11.70;99.90
23156;DHT22;11746;50.876;4.246;2022-12-29T01:22:30;11.70;99.90
23156;DHT22;11746;50.876;4.246;2022-12-29T01:25:01;11.60;99.90
23156;DHT22;11746;50.876;4.246;2022-12-29T01:27:29;11.50;99.90
23156;DHT22;11746;50.876;4.246;2022-12-29T01:29:57;11.40;99.90
23156;DHT22;11746;50.876;4.246;2022-12-29T01:32:22;11.30;99.90
23156;DHT22;11746;50.876;4.246;2022-12-29T01:34:53;11.30;99.90
23156;DHT22;11746;50.876;4.246;2022-12-29T01:37:18;11.20;99.90
23156;DHT22;11746;50.876;4.246;2022-12-29T01:39:44;11.20;99.90
23156;DHT22;11746;50.876;4.246;2022-12-29T01:42:16;11.30;99.90
23156;DHT22;11746;50.876;4.246;2022-12-29T01:45:00;11.20;99.90
23156;DHT22;11746;50.876;4.246;2022-12-29T01:47:58;11.10;99.90
23156;DHT22;11746;50.876;4.246;2022-12-29T01:50:40;11.20;99.90
23156;DHT22;11746;50.876;4.246;2022-12-29T01:53:18;11.10;99.90
23156;DHT22;11746;50.876;4.246;2022-12-29T01:55:49;11.10;99.90
23156;DHT22;11746;50.876;4.246;2022-12-29T01:58:18;11.10;99.90
23156;DHT22;11746;50.876;4.246;2022-12-29T02:00:45;11.10;99.90
23156;DHT22;11746;50.876;4.246;2022-12-29T02:03:11;11.00;99.90
23156;DHT22;11746;50.876;4.246;2022-12-29T02:05:49;11.00;99.90
23156;DHT22;11746;50.876;4.246;2022-12-29T02:08:17;11.00;99.90
23156;DHT22;11746;50.876;4.246;2022-12-29T02:10:43;10.90;99.90
23156;DHT22;11746;50.876;4.246;2022-12-29T02:13:14;10.90;99.90
23156;DHT22;11746;50.876;4.246;2022-12-29T02:24:30;10.50;99.90
23156;DHT22;11746;50.876;4.246;2022-12-29T02:32:38;10.30;99.90
23156;DHT22;11746;50.876;4.246;2022-12-29T02:35:19;10.30;99.90
23156;DHT22;11746;50.876;4.246;2022-12-29T02:40:39;10.30;99.90
23156;DHT22;11746;50.876;4.246;2022-12-29T02:46:06;10.30;99.90
23156;DHT22;11746;50.876;4.246;2022-12-29T02:48:43;10.30;99.90
23156;DHT22;11746;50.876;4.246;2022-12-29T02:51:19;10.40;99.90
23156;DHT22;11746;50.876;4.246;2022-12-29T02:53:46;10.40;99.90
23156;DHT22;11746;50.876;4.246;2022-12-29T02:56:31;10.50;99.90
23156;DHT22;11746;50.876;4.246;2022-12-29T02:58:56;10.50;99.90
23156;DHT22;11746;50.876;4.246;2022-12-29T03:09:38;10.30;99.90
23156;DHT22;11746;50.876;4.246;2022-12-29T03:15:39;10.10;99.90
23156;DHT22;11746;50.876;4.246;2022-12-29T03:21:39;10.20;99.90
23156;DHT22;11746;50.876;4.246;2022-12-29T03:24:29;10.20;99.90
23156;DHT22;11746;50.876;4.246;2022-12-29T03:26:59;10.30;99.90
23156;DHT22;11746;50.876;4.246;2022-12-29T03:29:27;10.30;99.90
23156;DHT22;11746;50.876;4.246;2022-12-29T03:31:55;10.30;99.90
23156;DHT22;11746;50.876;4.246;2022-12-29T03:34:22;10.40;99.90
23156;DHT22;11746;50.876;4.246;2022-12-29T03:36:55;10.40;99.90
23156;DHT22;11746;50.876;4.246;2022-12-29T03:39:25;10.50;99.90
23156;DHT22;11746;50.876;4.246;2022-12-29T03:42:04;10.40;99.90
23156;DHT22;11746;50.876;4.246;2022-12-29T03:44:39;10.50;99.90
23156;DHT22;11746;50.876;4.246;2022-12-29T03:47:07;10.50;99.90
23156;DHT22;11746;50.876;4.246;2022-12-29T03:49:33;10.50;99.90
23156;DHT22;11746;50.876;4.246;2022-12-29T03:51:59;10.50;99.90
23156;DHT22;11746;50.876;4.246;2022-12-29T03:54:25;10.50;99.90
23156;DHT22;11746;50.876;4.246;2022-12-29T03:56:50;10.50;99.90
23156;DHT22;11746;50.876;4.246;2022-12-29T03:59:16;10.40;99.90
23156;DHT22;11746;50.876;4.246;2022-12-29T04:01:42;10.40;99.90
23156;DHT22;11746;50.876;4.246;2022-12-29T04:04:08;10.40;99.90
23156;DHT22;11746;50.876;4.246;2022-12-29T04:06:33;10.40;99.90
23156;DHT22;11746;50.876;4.246;2022-12-29T04:08:59;10.40;99.90
23156;DHT22;11746;50.876;4.246;2022-12-29T04:11:28;10.30;99.90
23156;DHT22;11746;50.876;4.246;2022-12-29T04:13:54;10.30;99.90
23156;DHT22;11746;50.876;4.246;2022-12-29T04:16:19;10.30;99.90
23156;DHT22;11746;50.876;4.246;2022-12-29T04:18:47;10.20;99.90
23156;DHT22;11746;50.876;4.246;2022-12-29T04:21:15;10.30;99.90
23156;DHT22;11746;50.876;4.246;2022-12-29T04:23:43;10.20;99.90
23156;DHT22;11746;50.876;4.246;2022-12-29T04:26:09;10.30;99.90
23156;DHT22;11746;50.876;4.246;2022-12-29T04:28:36;10.30;99.90
23156;DHT22;11746;50.876;4.246;2022-12-29T04:31:03;10.30;99.90
23156;DHT22;11746;50.876;4.246;2022-12-29T04:33:29;10.30;99.90
23156;DHT22;11746;50.876;4.246;2022-12-29T04:35:57;10.30;99.90
23156;DHT22;11746;50.876;4.246;2022-12-29T04:38:24;10.30;99.90
23156;DHT22;11746;50.876;4.246;2022-12-29T04:40:50;10.30;99.90
23156;DHT22;11746;50.876;4.246;2022-12-29T04:43:16;10.20;99.90
23156;DHT22;11746;50.876;4.246;2022-12-29T04:45:47;10.20;99.90
23156;DHT22;11746;50.876;4.246;2022-12-29T04:48:15;10.20;99.90
23156;DHT22;11746;50.876;4.246;2022-12-29T04:50:44;10.20;99.90
23156;DHT22;11746;50.876;4.246;2022-12-29T04:53:10;10.20;99.90
23156;DHT22;11746;50.876;4.246;2022-12-29T04:55:36;10.30;99.90
23156;DHT22;11746;50.876;4.246;2022-12-29T04:58:02;10.30;99.90
23156;DHT22;11746;50.876;4.246;2022-12-29T05:00:29;10.30;99.90
23156;DHT22;11746;50.876;4.246;2022-12-29T05:02:55;10.30;99.90
23156;DHT22;11746;50.876;4.246;2022-12-29T05:05:21;10.20;99.90
23156;DHT22;11746;50.876;4.246;2022-12-29T05:07:46;10.30;99.90
23156;DHT22;11746;50.876;4.246;2022-12-29T05:10:15;10.40;99.90
23156;DHT22;11746;50.876;4.246;2022-12-29T05:12:49;10.30;99.90
23156;DHT22;11746;50.876;4.246;2022-12-29T05:15:15;10.30;99.90
23156;DHT22;11746;50.876;4.246;2022-12-29T05:17:41;10.40;99.90
23156;DHT22;11746;50.876;4.246;2022-12-29T05:20:07;10.40;99.90
23156;DHT22;11746;50.876;4.246;2022-12-29T05:22:33;10.40;99.90
23156;DHT22;11746;50.876;4.246;2022-12-29T05:24:59;10.50;99.90
23156;DHT22;11746;50.876;4.246;2022-12-29T05:27:25;10.50;99.90
23156;DHT22;11746;50.876;4.246;2022-12-29T05:29:53;10.50;99.90
23156;DHT22;11746;50.876;4.246;2022-12-29T05:32:19;10.60;99.90
23156;DHT22;11746;50.876;4.246;2022-12-29T05:34:44;10.60;99.90
23156;DHT22;11746;50.876;4.246;2022-12-29T05:37:13;10.50;99.90
23156;DHT22;11746;50.876;4.246;2022-12-29T05:39:41;10.50;99.90
23156;DHT22;11746;50.876;4.246;2022-12-29T05:42:09;10.50;99.90
23156;DHT22;11746;50.876;4.246;2022-12-29T05:44:37;10.50;99.90
23156;DHT22;11746;50.876;4.246;2022-12-29T05:47:03;10.50;99.90
23156;DHT22;11746;50.876;4.246;2022-12-29T05:49:32;10.50;99.90
23156;DHT22;11746;50.876;4.246;2022-12-29T05:51:57;10.50;99.90
23156;DHT22;11746;50.876;4.246;2022-12-29T05:54:25;10.50;99.90
23156;DHT22;11746;50.876;4.246;2022-12-29T05:56:51;10.60;99.90
23156;DHT22;11746;50.876;4.246;2022-12-29T05:59:16;10.50;99.90
23156;DHT22;11746;50.876;4.246;2022-12-29T06:01:42;10.50;99.90
23156;DHT22;11746;50.876;4.246;2022-12-29T06:04:08;10.50;99.90
23156;DHT22;11746;50.876;4.246;2022-12-29T06:06:33;10.50;99.90
23156;DHT22;11746;50.876;4.246;2022-12-29T06:08:59;10.40;99.90
23156;DHT22;11746;50.876;4.246;2022-12-29T06:11:25;10.40;99.90
23156;DHT22;11746;50.876;4.246;2022-12-29T06:13:51;10.40;99.90
23156;DHT22;11746;50.876;4.246;2022-12-29T06:16:16;10.40;99.90
23156;DHT22;11746;50.876;4.246;2022-12-29T06:18:46;10.40;99.90
23156;DHT22;11746;50.876;4.246;2022-12-29T06:21:14;10.40;99.90
23156;DHT22;11746;50.876;4.246;2022-12-29T06:23:40;10.40;99.90
23156;DHT22;11746;50.876;4.246;2022-12-29T06:26:05;10.40;99.90
23156;DHT22;11746;50.876;4.246;2022-12-29T06:28:31;10.40;99.90
23156;DHT22;11746;50.876;4.246;2022-12-29T06:30:59;10.40;99.90
23156;DHT22;11746;50.876;4.246;2022-12-29T06:33:27;10.40;99.90
23156;DHT22;11746;50.876;4.246;2022-12-29T06:35:56;10.40;99.90
23156;DHT22;11746;50.876;4.246;2022-12-29T06:38:25;10.50;99.90
23156;DHT22;11746;50.876;4.246;2022-12-29T06:40:50;10.40;99.90
23156;DHT22;11746;50.876;4.246;2022-12-29T06:43:18;10.50;99.90
23156;DHT22;11746;50.876;4.246;2022-12-29T06:45:44;10.40;99.90
23156;DHT22;11746;50.876;4.246;2022-12-29T06:48:12;10.50;99.90
23156;DHT22;11746;50.876;4.246;2022-12-29T06:50:37;10.50;99.90
23156;DHT22;11746;50.876;4.246;2022-12-29T06:53:03;10.50;99.90
23156;DHT22;11746;50.876;4.246;2022-12-29T06:55:29;10.50;99.90
23156;DHT22;11746;50.876;4.246;2022-12-29T06:57:58;10.50;99.90
23156;DHT22;11746;50.876;4.246;2022-12-29T07:00:25;10.50;99.90
23156;DHT22;11746;50.876;4.246;2022-12-29T07:02:55;10.50;99.90
23156;DHT22;11746;50.876;4.246;2022-12-29T07:05:20;10.60;99.90
23156;DHT22;11746;50.876;4.246;2022-12-29T07:07:46;10.60;99.90
23156;DHT22;11746;50.876;4.246;2022-12-29T07:10:12;10.60;99.90
23156;DHT22;11746;50.876;4.246;2022-12-29T07:12:37;10.50;99.90
23156;DHT22;11746;50.876;4.246;2022-12-29T07:15:03;10.50;99.90
23156;DHT22;11746;50.876;4.246;2022-12-29T07:17:31;10.50;99.90
23156;DHT22;11746;50.876;4.246;2022-12-29T07:19:56;10.50;99.90
23156;DHT22;11746;50.876;4.246;2022-12-29T07:22:22;10.50;99.90
23156;DHT22;11746;50.876;4.246;2022-12-29T07:24:47;10.50;99.90
23156;DHT22;11746;50.876;4.246;2022-12-29T07:27:15;10.50;99.90
23156;DHT22;11746;50.876;4.246;2022-12-29T07:29:41;10.50;99.90
23156;DHT22;11746;50.876;4.246;2022-12-29T07:32:07;10.50;99.90
23156;DHT22;11746;50.876;4.246;2022-12-29T07:34:32;10.50;99.90
23156;DHT22;11746;50.876;4.246;2022-12-29T07:36:58;10.50;99.90
23156;DHT22;11746;50.876;4.246;2022-12-29T07:39:24;10.60;99.90
23156;DHT22;11746;50.876;4.246;2022-12-29T07:41:49;10.60;99.90
23156;DHT22;11746;50.876;4.246;2022-12-29T07:44:15;10.60;99.90
23156;DHT22;11746;50.876;4.246;2022-12-29T07:46:40;10.50;99.90
23156;DHT22;11746;50.876;4.246;2022-12-29T07:49:09;10.60;99.90
23156;DHT22;11746;50.876;4.246;2022-12-29T07:51:34;10.60;99.90
23156;DHT22;11746;50.876;4.246;2022-12-29T07:54:00;10.60;99.90
23156;DHT22;11746;50.876;4.246;2022-12-29T07:56:26;10.50;99.90
23156;DHT22;11746;50.876;4.246;2022-12-29T07:58:52;10.50;99.90
23156;DHT22;11746;50.876;4.246;2022-12-29T08:01:17;10.50;99.90
23156;DHT22;11746;50.876;4.246;2022-12-29T08:03:43;10.60;99.90
23156;DHT22;11746;50.876;4.246;2022-12-29T08:06:10;10.50;99.90
23156;DHT22;11746;50.876;4.246;2022-12-29T08:08:38;10.50;99.90
23156;DHT22;11746;50.876;4.246;2022-12-29T08:11:04;10.50;99.90
23156;DHT22;11746;50.876;4.246;2022-12-29T08:13:29;10.50;99.90
23156;DHT22;11746;50.876;4.246;2022-12-29T08:15:57;10.50;99.90
23156;DHT22;11746;50.876;4.246;2022-12-29T08:18:23;10.50;99.90
23156;DHT22;11746;50.876;4.246;2022-12-29T08:20:49;10.50;99.90
23156;DHT22;11746;50.876;4.246;2022-12-29T08:23:17;10.50;99.90
23156;DHT22;11746;50.876;4.246;2022-12-29T08:26:05;10.50;99.90
23156;DHT22;11746;50.876;4.246;2022-12-29T08:28:31;10.50;99.90
23156;DHT22;11746;50.876;4.246;2022-12-29T08:30:59;10.50;99.90
23156;DHT22;11746;50.876;4.246;2022-12-29T08:33:25;10.50;99.90
23156;DHT22;11746;50.876;4.246;2022-12-29T08:35:51;10.50;99.90
23156;DHT22;11746;50.876;4.246;2022-12-29T08:38:19;10.50;99.90
23156;DHT22;11746;50.876;4.246;2022-12-29T08:40:45;10.50;99.90
23156;DHT22;11746;50.876;4.246;2022-12-29T08:43:13;10.50;99.90
23156;DHT22;11746;50.876;4.246;2022-12-29T08:45:38;10.50;99.90
23156;DHT22;11746;50.876;4.246;2022-12-29T08:48:04;10.50;99.90
23156;DHT22;11746;50.876;4.246;2022-12-29T08:50:30;10.50;99.90
23156;DHT22;11746;50.876;4.246;2022-12-29T08:52:58;10.40;99.90
23156;DHT22;11746;50.876;4.246;2022-12-29T08:55:26;10.40;99.90
23156;DHT22;11746;50.876;4.246;2022-12-29T08:57:52;10.40;99.90
23156;DHT22;11746;50.876;4.246;2022-12-29T09:00:20;10.40;99.90
23156;DHT22;11746;50.876;4.246;2022-12-29T09:02:47;10.30;99.90
23156;DHT22;11746;50.876;4.246;2022-12-29T09:05:12;10.20;99.90
23156;DHT22;11746;50.876;4.246;2022-12-29T09:07:38;10.20;99.90
23156;DHT22;11746;50.876;4.246;2022-12-29T09:10:06;10.10;99.90
23156;DHT22;11746;50.876;4.246;2022-12-29T09:12:32;10.10;99.90
23156;DHT22;11746;50.876;4.246;2022-12-29T09:14:58;10.00;99.90
23156;DHT22;11746;50.876;4.246;2022-12-29T09:17:24;10.00;99.90
23156;DHT22;11746;50.876;4.246;2022-12-29T09:20:08;10.00;99.90
23156;DHT22;11746;50.876;4.246;2022-12-29T09:22:34;9.90;99.90
23156;DHT22;11746;50.876;4.246;2022-12-29T09:25:03;9.90;99.90
23156;DHT22;11746;50.876;4.246;2022-12-29T09:27:29;9.90;99.90
23156;DHT22;11746;50.876;4.246;2022-12-29T09:30:00;9.80;99.90
23156;DHT22;11746;50.876;4.246;2022-12-29T09:32:27;9.70;99.90
23156;DHT22;11746;50.876;4.246;2022-12-29T09:34:53;9.60;99.90
23156;DHT22;11746;50.876;4.246;2022-12-29T09:37:21;9.60;99.90
23156;DHT22;11746;50.876;4.246;2022-12-29T09:39:49;9.60;99.90
23156;DHT22;11746;50.876;4.246;2022-12-29T09:42:22;9.60;99.90
23156;DHT22;11746;50.876;4.246;2022-12-29T09:45:20;9.60;99.90
23156;DHT22;11746;50.876;4.246;2022-12-29T09:47:50;9.50;99.90
23156;DHT22;11746;50.876;4.246;2022-12-29T09:50:23;9.60;99.90
23156;DHT22;11746;50.876;4.246;2022-12-29T09:52:52;9.70;99.90
23156;DHT22;11746;50.876;4.246;2022-12-29T09:55:23;9.90;99.90
23156;DHT22;11746;50.876;4.246;2022-12-29T09:57:56;10.00;99.90
23156;DHT22;11746;50.876;4.246;2022-12-29T10:00:37;10.10;99.90
23156;DHT22;11746;50.876;4.246;2022-12-29T10:03:18;10.20;99.90
23156;DHT22;11746;50.876;4.246;2022-12-29T10:17:26;10.30;99.90
23156;DHT22;11746;50.876;4.246;2022-12-29T10:25:24;10.50;99.90
23156;DHT22;11746;50.876;4.246;2022-12-29T10:27:53;10.50;99.90
23156;DHT22;11746;50.876;4.246;2022-12-29T10:30:21;10.50;99.90
23156;DHT22;11746;50.876;4.246;2022-12-29T10:32:58;10.60;99.90
23156;DHT22;11746;50.876;4.246;2022-12-29T10:35:34;10.60;99.90
23156;DHT22;11746;50.876;4.246;2022-12-29T10:43:48;10.70;99.90
23156;DHT22;11746;50.876;4.246;2022-12-29T10:46:20;10.70;99.90
23156;DHT22;11746;50.876;4.246;2022-12-29T10:48:47;10.70;99.90
23156;DHT22;11746;50.876;4.246;2022-12-29T10:51:21;10.80;99.90
23156;DHT22;11746;50.876;4.246;2022-12-29T10:54:21;10.80;99.90
23156;DHT22;11746;50.876;4.246;2022-12-29T10:57:00;10.80;99.90
23156;DHT22;11746;50.876;4.246;2022-12-29T10:59:31;10.80;99.90
23156;DHT22;11746;50.876;4.246;2022-12-29T11:07:17;10.80;99.90
23156;DHT22;11746;50.876;4.246;2022-12-29T11:09:47;10.80;99.90
23156;DHT22;11746;50.876;4.246;2022-12-29T11:12:20;10.90;99.90
23156;DHT22;11746;50.876;4.246;2022-12-29T11:14:47;10.90;99.90
23156;DHT22;11746;50.876;4.246;2022-12-29T11:17:17;10.90;99.90
23156;DHT22;11746;50.876;4.246;2022-12-29T11:19:45;11.00;99.90
23156;DHT22;11746;50.876;4.246;2022-12-29T11:22:21;11.10;99.90
23156;DHT22;11746;50.876;4.246;2022-12-29T11:24:49;11.10;99.90
23156;DHT22;11746;50.876;4.246;2022-12-29T11:27:25;11.00;99.90
23156;DHT22;11746;50.876;4.246;2022-12-29T11:29:55;11.00;99.90
23156;DHT22;11746;50.876;4.246;2022-12-29T11:32:27;11.00;99.90
23156;DHT22;11746;50.876;4.246;2022-12-29T11:34:56;10.70;99.90
23156;DHT22;11746;50.876;4.246;2022-12-29T11:37:33;10.60;99.90
23156;DHT22;11746;50.876;4.246;2022-12-29T11:40:17;10.50;99.90
23156;DHT22;11746;50.876;4.246;2022-12-29T11:42:54;10.50;99.90
23156;DHT22;11746;50.876;4.246;2022-12-29T11:45:22;10.40;99.90
23156;DHT22;11746;50.876;4.246;2022-12-29T11:50:57;10.30;99.90
23156;DHT22;11746;50.876;4.246;2022-12-29T11:53:47;10.20;99.90
23156;DHT22;11746;50.876;4.246;2022-12-29T11:56:17;10.20;99.90
23156;DHT22;11746;50.876;4.246;2022-12-29T11:58:44;10.30;99.90
23156;DHT22;11746;50.876;4.246;2022-12-29T12:01:24;10.30;99.90
23156;DHT22;11746;50.876;4.246;2022-12-29T12:04:06;10.30;99.90
23156;DHT22;11746;50.876;4.246;2022-12-29T12:06:43;10.30;99.90
23156;DHT22;11746;50.876;4.246;2022-12-29T12:09:19;10.30;99.90
23156;DHT22;11746;50.876;4.246;2022-12-29T12:11:52;10.30;99.90
23156;DHT22;11746;50.876;4.246;2022-12-29T12:14:34;10.30;99.90
23156;DHT22;11746;50.876;4.246;2022-12-29T12:17:11;10.20;99.90
23156;DHT22;11746;50.876;4.246;2022-12-29T12:19:48;10.10;99.90
23156;DHT22;11746;50.876;4.246;2022-12-29T12:25:35;10.10;99.90
23156;DHT22;11746;50.876;4.246;2022-12-29T12:28:18;10.00;99.90
23156;DHT22;11746;50.876;4.246;2022-12-29T12:30:50;10.10;99.90
23156;DHT22;11746;50.876;4.246;2022-12-29T12:33:38;10.20;99.90
23156;DHT22;11746;50.876;4.246;2022-12-29T12:36:32;10.30;99.90
23156;DHT22;11746;50.876;4.246;2022-12-29T12:39:11;10.40;99.90
23156;DHT22;11746;50.876;4.246;2022-12-29T12:41:51;10.40;99.90
23156;DHT22;11746;50.876;4.246;2022-12-29T12:44:36;10.40;99.90
23156;DHT22;11746;50.876;4.246;2022-12-29T12:50:14;10.50;99.90
23156;DHT22;11746;50.876;4.246;2022-12-29T12:53:06;10.50;99.90
23156;DHT22;11746;50.876;4.246;2022-12-29T13:17:30;10.40;99.90
23156;DHT22;11746;50.876;4.246;2022-12-29T13:25:49;10.70;99.90
23156;DHT22;11746;50.876;4.246;2022-12-29T13:36:37;11.20;99.90
23156;DHT22;11746;50.876;4.246;2022-12-29T13:39:21;10.80;99.90
23156;DHT22;11746;50.876;4.246;2022-12-29T13:41:54;10.70;99.90
23156;DHT22;11746;50.876;4.246;2022-12-29T13:44:44;10.90;99.90
23156;DHT22;11746;50.876;4.246;2022-12-29T13:47:20;11.20;99.90
23156;DHT22;11746;50.876;4.246;2022-12-29T13:49:52;11.90;99.90
23156;DHT22;11746;50.876;4.246;2022-12-29T13:52:45;12.30;99.90
23156;DHT22;11746;50.876;4.246;2022-12-29T13:55:27;11.70;99.90
23156;DHT22;11746;50.876;4.246;2022-12-29T14:09:04;10.50;99.90
23156;DHT22;11746;50.876;4.246;2022-12-29T14:11:35;10.40;99.90
23156;DHT22;11746;50.876;4.246;2022-12-29T14:14:30;10.40;99.90
23156;DHT22;11746;50.876;4.246;2022-12-29T14:17:10;10.40;99.90
23156;DHT22;11746;50.876;4.246;2022-12-29T14:19:40;10.30;99.90
23156;DHT22;11746;50.876;4.246;2022-12-29T14:22:10;10.20;99.90
23156;DHT22;11746;50.876;4.246;2022-12-29T14:24:45;9.80;99.90
23156;DHT22;11746;50.876;4.246;2022-12-29T14:34:52;8.80;99.90
23156;DHT22;11746;50.876;4.246;2022-12-29T14:37:33;8.60;99.90
23156;DHT22;11746;50.876;4.246;2022-12-29T14:40:23;8.50;99.90
23156;DHT22;11746;50.876;4.246;2022-12-29T14:42:55;8.40;99.90
23156;DHT22;11746;50.876;4.246;2022-12-29T14:45:30;8.30;99.90
23156;DHT22;11746;50.876;4.246;2022-12-29T14:47:58;8.40;99.90
23156;DHT22;11746;50.876;4.246;2022-12-29T14:53:03;8.40;99.90
23156;DHT22;11746;50.876;4.246;2022-12-29T14:58:27;8.40;99.90
23156;DHT22;11746;50.876;4.246;2022-12-29T15:00:57;8.30;99.90
23156;DHT22;11746;50.876;4.246;2022-12-29T15:03:28;8.30;99.90
23156;DHT22;11746;50.876;4.246;2022-12-29T15:06:11;8.30;99.90
23156;DHT22;11746;50.876;4.246;2022-12-29T15:09:03;8.20;99.90
23156;DHT22;11746;50.876;4.246;2022-12-29T15:14:01;8.10;99.90
23156;DHT22;11746;50.876;4.246;2022-12-29T15:18:53;8.10;99.90
23156;DHT22;11746;50.876;4.246;2022-12-29T15:21:26;8.10;99.90
23156;DHT22;11746;50.876;4.246;2022-12-29T15:23:53;8.10;99.90
23156;DHT22;11746;50.876;4.246;2022-12-29T15:26:19;8.00;99.90
23156;DHT22;11746;50.876;4.246;2022-12-29T15:28:51;8.00;99.90
23156;DHT22;11746;50.876;4.246;2022-12-29T15:31:18;8.10;99.90
23156;DHT22;11746;50.876;4.246;2022-12-29T15:33:46;8.10;99.90
23156;DHT22;11746;50.876;4.246;2022-12-29T15:36:36;8.20;99.90
23156;DHT22;11746;50.876;4.246;2022-12-29T15:39:23;8.20;99.90
23156;DHT22;11746;50.876;4.246;2022-12-29T15:41:56;8.30;99.90
23156;DHT22;11746;50.876;4.246;2022-12-29T15:44:44;8.20;99.90
23156;DHT22;11746;50.876;4.246;2022-12-29T15:47:25;8.30;99.90
23156;DHT22;11746;50.876;4.246;2022-12-29T15:49:53;8.30;99.90
23156;DHT22;11746;50.876;4.246;2022-12-29T15:52:23;8.30;99.90
23156;DHT22;11746;50.876;4.246;2022-12-29T15:54:52;8.30;99.90
23156;DHT22;11746;50.876;4.246;2022-12-29T15:57:27;8.30;99.90
23156;DHT22;11746;50.876;4.246;2022-12-29T15:59:54;8.20;99.90
23156;DHT22;11746;50.876;4.246;2022-12-29T16:02:24;8.10;99.90
23156;DHT22;11746;50.876;4.246;2022-12-29T16:04:50;8.10;99.90
23156;DHT22;11746;50.876;4.246;2022-12-29T16:09:48;7.90;99.90
23156;DHT22;11746;50.876;4.246;2022-12-29T16:12:24;8.00;99.90
23156;DHT22;11746;50.876;4.246;2022-12-29T16:17:31;8.00;99.90
23156;DHT22;11746;50.876;4.246;2022-12-29T16:20:01;8.00;99.90
23156;DHT22;11746;50.876;4.246;2022-12-29T16:22:30;8.00;99.90
23156;DHT22;11746;50.876;4.246;2022-12-29T16:25:24;8.00;99.90
23156;DHT22;11746;50.876;4.246;2022-12-29T16:27:51;8.00;99.90
23156;DHT22;11746;50.876;4.246;2022-12-29T16:30:27;8.00;99.90
23156;DHT22;11746;50.876;4.246;2022-12-29T16:33:01;8.00;99.90
23156;DHT22;11746;50.876;4.246;2022-12-29T16:35:38;8.00;99.90
23156;DHT22;11746;50.876;4.246;2022-12-29T16:38:18;8.00;99.90
23156;DHT22;11746;50.876;4.246;2022-12-29T16:40:54;8.00;99.90
23156;DHT22;11746;50.876;4.246;2022-12-29T16:43:40;7.90;99.90
23156;DHT22;11746;50.876;4.246;2022-12-29T16:46:27;8.00;99.90
23156;DHT22;11746;50.876;4.246;2022-12-29T16:48:55;8.00;99.90
23156;DHT22;11746;50.876;4.246;2022-12-29T16:51:33;8.00;99.90
23156;DHT22;11746;50.876;4.246;2022-12-29T16:54:00;7.90;99.90
23156;DHT22;11746;50.876;4.246;2022-12-29T16:56:33;8.00;99.90
23156;DHT22;11746;50.876;4.246;2022-12-29T17:00:00;8.00;99.90
23156;DHT22;11746;50.876;4.246;2022-12-29T17:01:55;8.10;99.90
23156;DHT22;11746;50.876;4.246;2022-12-29T17:04:22;8.10;99.90
23156;DHT22;11746;50.876;4.246;2022-12-29T17:06:50;8.10;99.90
23156;DHT22;11746;50.876;4.246;2022-12-29T17:09:21;8.20;99.90
23156;DHT22;11746;50.876;4.246;2022-12-29T17:11:49;8.10;99.90
23156;DHT22;11746;50.876;4.246;2022-12-29T17:14:44;8.10;99.90
23156;DHT22;11746;50.876;4.246;2022-12-29T17:19:52;8.20;99.90
23156;DHT22;11746;50.876;4.246;2022-12-29T17:22:24;8.20;99.90
23156;DHT22;11746;50.876;4.246;2022-12-29T17:24:51;8.20;99.90
23156;DHT22;11746;50.876;4.246;2022-12-29T17:27:43;8.20;99.90
23156;DHT22;11746;50.876;4.246;2022-12-29T17:30:13;8.20;99.90
23156;DHT22;11746;50.876;4.246;2022-12-29T17:32:42;8.20;99.90
23156;DHT22;11746;50.876;4.246;2022-12-29T17:35:18;8.20;99.90
23156;DHT22;11746;50.876;4.246;2022-12-29T17:37:47;8.20;99.90
23156;DHT22;11746;50.876;4.246;2022-12-29T17:40:24;8.20;99.90
23156;DHT22;11746;50.876;4.246;2022-12-29T17:42:56;8.20;99.90
23156;DHT22;11746;50.876;4.246;2022-12-29T17:45:29;8.20;99.90
23156;DHT22;11746;50.876;4.246;2022-12-29T17:47:55;8.20;99.90
23156;DHT22;11746;50.876;4.246;2022-12-29T17:50:23;8.20;99.90
23156;DHT22;11746;50.876;4.246;2022-12-29T17:52:56;8.20;99.90
23156;DHT22;11746;50.876;4.246;2022-12-29T17:55:23;8.20;99.90
23156;DHT22;11746;50.876;4.246;2022-12-29T17:57:50;8.20;99.90
23156;DHT22;11746;50.876;4.246;2022-12-29T18:00:21;8.20;99.90
23156;DHT22;11746;50.876;4.246;2022-12-29T18:02:48;8.10;99.90
23156;DHT22;11746;50.876;4.246;2022-12-29T18:05:20;8.10;99.90
23156;DHT22;11746;50.876;4.246;2022-12-29T18:07:47;8.10;99.90
23156;DHT22;11746;50.876;4.246;2022-12-29T18:10:14;8.10;99.90
23156;DHT22;11746;50.876;4.246;2022-12-29T18:12:42;8.00;99.90
23156;DHT22;11746;50.876;4.246;2022-12-29T18:17:42;7.90;99.90
23156;DHT22;11746;50.876;4.246;2022-12-29T18:20:08;7.90;99.90
23156;DHT22;11746;50.876;4.246;2022-12-29T18:22:34;7.90;99.90
23156;DHT22;11746;50.876;4.246;2022-12-29T18:24:59;7.80;99.90
23156;DHT22;11746;50.876;4.246;2022-12-29T18:27:28;7.80;99.90